Richmond, Virginia
Current Conditions -  °F | °C
As of 7:54 PM on Wednesday 22 Oct 2014 (Local Time) from KRIC Reporting Station
Overcast Overcast  
Wind Chill: 56°   Ceiling: 4000
Heat Index: 56°   Visibility: 10mi
Dew Point: 47°   Wind: 15mph
Humidity: 72%   Direction: 320°NW
Pressure: 29.95"   Gusts: 22mph
Location:  37.54°N, 77.43°W
Report Text: KRIC 222354Z 32013G19KT 10SM OVC040 13/08 A2995 RMK AO2 RAB28E40 SLP145 P0000 60002 T01330083 10144 20128 51007
Loading
Personal Weather Stations






























Interactive Weather Map
Tropical Storm Tracking
New forecast layout! Learn more

10-Day Weather Forecast

Advertisements
Track Severe Weather on mobile